sensor_id;sensor_type;location;lat;lon;timestamp;P1;durP1;ratioP1;P2;durP2;ratioP2
4148;SDS011;2088;51.032;7.082;2023-06-01T00:00:16;3.50;;;2.20;;
4148;SDS011;2088;51.032;7.082;2023-06-01T00:02:43;4.60;;;1.90;;
4148;SDS011;2088;51.032;7.082;2023-06-01T00:05:11;10.40;;;2.80;;
4148;SDS011;2088;51.032;7.082;2023-06-01T00:07:38;7.63;;;2.20;;
4148;SDS011;2088;51.032;7.082;2023-06-01T00:10:05;2.57;;;1.90;;
4148;SDS011;2088;51.032;7.082;2023-06-01T00:12:32;4.80;;;3.33;;
4148;SDS011;2088;51.032;7.082;2023-06-01T00:14:59;9.90;;;2.30;;
4148;SDS011;2088;51.032;7.082;2023-06-01T00:17:29;4.90;;;2.10;;
4148;SDS011;2088;51.032;7.082;2023-06-01T00:19:57;9.07;;;2.27;;
4148;SDS011;2088;51.032;7.082;2023-06-01T00:22:26;2.30;;;2.10;;
4148;SDS011;2088;51.032;7.082;2023-06-01T00:24:53;15.77;;;2.60;;
4148;SDS011;2088;51.032;7.082;2023-06-01T00:27:21;5.47;;;1.93;;
4148;SDS011;2088;51.032;7.082;2023-06-01T00:29:48;4.17;;;2.37;;
4148;SDS011;2088;51.032;7.082;2023-06-01T00:32:15;2.90;;;2.20;;
4148;SDS011;2088;51.032;7.082;2023-06-01T00:34:43;7.43;;;2.27;;
4148;SDS011;2088;51.032;7.082;2023-06-01T00:37:10;15.30;;;2.03;;
4148;SDS011;2088;51.032;7.082;2023-06-01T00:39:37;2.47;;;1.80;;
4148;SDS011;2088;51.032;7.082;2023-06-01T00:42:05;6.17;;;2.60;;
4148;SDS011;2088;51.032;7.082;2023-06-01T00:44:32;6.43;;;1.93;;
4148;SDS011;2088;51.032;7.082;2023-06-01T00:46:59;8.10;;;2.00;;
4148;SDS011;2088;51.032;7.082;2023-06-01T00:49:26;17.50;;;2.60;;
4148;SDS011;2088;51.032;7.082;2023-06-01T00:51:55;2.97;;;2.17;;
4148;SDS011;2088;51.032;7.082;2023-06-01T00:54:22;23.13;;;4.00;;
4148;SDS011;2088;51.032;7.082;2023-06-01T00:56:49;9.57;;;2.73;;
4148;SDS011;2088;51.032;7.082;2023-06-01T00:59:16;2.10;;;1.90;;
4148;SDS011;2088;51.032;7.082;2023-06-01T01:01:43;7.10;;;2.17;;
4148;SDS011;2088;51.032;7.082;2023-06-01T01:04:10;5.83;;;2.13;;
4148;SDS011;2088;51.032;7.082;2023-06-01T01:06:39;7.77;;;1.93;;
4148;SDS011;2088;51.032;7.082;2023-06-01T01:09:17;7.93;;;2.83;;
4148;SDS011;2088;51.032;7.082;2023-06-01T01:11:51;4.23;;;2.10;;
4148;SDS011;2088;51.032;7.082;2023-06-01T01:14:20;4.00;;;2.27;;
4148;SDS011;2088;51.032;7.082;2023-06-01T01:16:49;9.03;;;2.40;;
4148;SDS011;2088;51.032;7.082;2023-06-01T01:19:24;6.67;;;2.10;;
4148;SDS011;2088;51.032;7.082;2023-06-01T01:21:59;14.13;;;2.70;;
4148;SDS011;2088;51.032;7.082;2023-06-01T01:24:37;4.33;;;2.73;;
4148;SDS011;2088;51.032;7.082;2023-06-01T01:27:14;7.60;;;2.50;;
4148;SDS011;2088;51.032;7.082;2023-06-01T01:29:45;13.40;;;2.70;;
4148;SDS011;2088;51.032;7.082;2023-06-01T01:32:13;6.10;;;2.47;;
4148;SDS011;2088;51.032;7.082;2023-06-01T01:34:40;3.90;;;1.97;;
4148;SDS011;2088;51.032;7.082;2023-06-01T01:37:07;7.10;;;2.10;;
4148;SDS011;2088;51.032;7.082;2023-06-01T01:39:34;8.13;;;2.20;;
4148;SDS011;2088;51.032;7.082;2023-06-01T01:42:01;4.10;;;2.30;;
4148;SDS011;2088;51.032;7.082;2023-06-01T01:44:28;3.20;;;1.83;;
4148;SDS011;2088;51.032;7.082;2023-06-01T01:46:58;4.87;;;2.13;;
4148;SDS011;2088;51.032;7.082;2023-06-01T01:49:35;6.73;;;3.60;;
4148;SDS011;2088;51.032;7.082;2023-06-01T01:52:05;5.03;;;2.53;;
4148;SDS011;2088;51.032;7.082;2023-06-01T01:54:33;3.77;;;1.83;;
4148;SDS011;2088;51.032;7.082;2023-06-01T01:57:03;3.90;;;2.40;;
4148;SDS011;2088;51.032;7.082;2023-06-01T01:59:31;4.60;;;1.87;;
4148;SDS011;2088;51.032;7.082;2023-06-01T02:02:00;2.10;;;1.90;;
4148;SDS011;2088;51.032;7.082;2023-06-01T02:04:27;3.07;;;2.00;;
4148;SDS011;2088;51.032;7.082;2023-06-01T02:06:55;3.37;;;2.03;;
4148;SDS011;2088;51.032;7.082;2023-06-01T02:09:22;2.30;;;2.00;;
4148;SDS011;2088;51.032;7.082;2023-06-01T02:11:49;2.13;;;1.93;;
4148;SDS011;2088;51.032;7.082;2023-06-01T02:14:16;2.83;;;2.20;;
4148;SDS011;2088;51.032;7.082;2023-06-01T02:16:44;6.83;;;2.00;;
4148;SDS011;2088;51.032;7.082;2023-06-01T02:19:12;3.73;;;2.10;;
4148;SDS011;2088;51.032;7.082;2023-06-01T02:21:40;5.47;;;2.20;;
4148;SDS011;2088;51.032;7.082;2023-06-01T02:24:09;3.47;;;2.30;;
4148;SDS011;2088;51.032;7.082;2023-06-01T02:26:36;3.33;;;2.30;;
4148;SDS011;2088;51.032;7.082;2023-06-01T02:29:03;4.40;;;2.87;;
4148;SDS011;2088;51.032;7.082;2023-06-01T02:31:31;6.13;;;2.53;;
4148;SDS011;2088;51.032;7.082;2023-06-01T02:33:58;5.20;;;2.70;;
4148;SDS011;2088;51.032;7.082;2023-06-01T02:36:26;4.87;;;2.67;;
4148;SDS011;2088;51.032;7.082;2023-06-01T02:38:54;9.87;;;2.63;;
4148;SDS011;2088;51.032;7.082;2023-06-01T02:41:21;6.90;;;2.53;;
4148;SDS011;2088;51.032;7.082;2023-06-01T02:43:48;3.03;;;2.47;;
4148;SDS011;2088;51.032;7.082;2023-06-01T02:46:16;4.30;;;2.67;;
4148;SDS011;2088;51.032;7.082;2023-06-01T02:48:43;4.13;;;2.40;;
4148;SDS011;2088;51.032;7.082;2023-06-01T02:51:10;9.07;;;2.40;;
4148;SDS011;2088;51.032;7.082;2023-06-01T02:53:40;4.57;;;1.80;;
4148;SDS011;2088;51.032;7.082;2023-06-01T02:56:07;7.40;;;2.67;;
4148;SDS011;2088;51.032;7.082;2023-06-01T02:58:34;3.93;;;2.00;;
4148;SDS011;2088;51.032;7.082;2023-06-01T03:01:01;4.13;;;2.33;;
4148;SDS011;2088;51.032;7.082;2023-06-01T03:03:28;5.10;;;2.07;;
4148;SDS011;2088;51.032;7.082;2023-06-01T03:05:55;2.50;;;2.23;;
4148;SDS011;2088;51.032;7.082;2023-06-01T03:08:23;4.27;;;2.47;;
4148;SDS011;2088;51.032;7.082;2023-06-01T03:10:52;5.60;;;2.50;;
4148;SDS011;2088;51.032;7.082;2023-06-01T03:13:19;4.97;;;2.60;;
4148;SDS011;2088;51.032;7.082;2023-06-01T03:15:46;7.70;;;2.47;;
4148;SDS011;2088;51.032;7.082;2023-06-01T03:18:13;4.63;;;2.70;;
4148;SDS011;2088;51.032;7.082;2023-06-01T03:20:40;4.17;;;2.30;;
4148;SDS011;2088;51.032;7.082;2023-06-01T03:23:07;5.53;;;2.80;;
4148;SDS011;2088;51.032;7.082;2023-06-01T03:25:35;6.90;;;2.67;;
4148;SDS011;2088;51.032;7.082;2023-06-01T03:28:03;7.30;;;3.00;;
4148;SDS011;2088;51.032;7.082;2023-06-01T03:30:30;3.83;;;2.33;;
4148;SDS011;2088;51.032;7.082;2023-06-01T03:32:57;7.57;;;2.80;;
4148;SDS011;2088;51.032;7.082;2023-06-01T03:35:24;3.43;;;2.73;;
4148;SDS011;2088;51.032;7.082;2023-06-01T03:37:51;6.00;;;2.60;;
4148;SDS011;2088;51.032;7.082;2023-06-01T03:40:19;5.57;;;2.10;;
4148;SDS011;2088;51.032;7.082;2023-06-01T03:42:47;5.83;;;3.20;;
4148;SDS011;2088;51.032;7.082;2023-06-01T03:45:15;4.20;;;2.53;;
4148;SDS011;2088;51.032;7.082;2023-06-01T03:47:42;2.80;;;2.60;;
4148;SDS011;2088;51.032;7.082;2023-06-01T03:50:10;8.23;;;2.17;;
4148;SDS011;2088;51.032;7.082;2023-06-01T03:52:37;14.20;;;3.30;;
4148;SDS011;2088;51.032;7.082;2023-06-01T03:55:05;3.77;;;2.37;;
4148;SDS011;2088;51.032;7.082;2023-06-01T03:57:34;6.83;;;2.90;;
4148;SDS011;2088;51.032;7.082;2023-06-01T04:00:02;4.50;;;2.60;;
4148;SDS011;2088;51.032;7.082;2023-06-01T04:02:43;4.20;;;2.80;;
4148;SDS011;2088;51.032;7.082;2023-06-01T04:05:10;3.90;;;2.30;;
4148;SDS011;2088;51.032;7.082;2023-06-01T04:07:41;2.90;;;2.37;;
4148;SDS011;2088;51.032;7.082;2023-06-01T04:10:09;4.53;;;3.57;;
4148;SDS011;2088;51.032;7.082;2023-06-01T04:12:38;12.43;;;2.60;;
4148;SDS011;2088;51.032;7.082;2023-06-01T04:15:06;5.53;;;2.60;;
4148;SDS011;2088;51.032;7.082;2023-06-01T04:17:35;6.43;;;3.10;;
4148;SDS011;2088;51.032;7.082;2023-06-01T04:20:04;6.87;;;3.10;;
4148;SDS011;2088;51.032;7.082;2023-06-01T04:22:32;4.13;;;2.40;;
4148;SDS011;2088;51.032;7.082;2023-06-01T04:24:59;7.47;;;2.20;;
4148;SDS011;2088;51.032;7.082;2023-06-01T04:27:26;2.40;;;2.20;;
4148;SDS011;2088;51.032;7.082;2023-06-01T04:29:53;11.93;;;3.10;;
4148;SDS011;2088;51.032;7.082;2023-06-01T04:32:23;3.30;;;2.40;;
4148;SDS011;2088;51.032;7.082;2023-06-01T04:34:52;3.50;;;2.97;;
4148;SDS011;2088;51.032;7.082;2023-06-01T04:37:23;4.80;;;2.97;;
4148;SDS011;2088;51.032;7.082;2023-06-01T04:39:51;3.97;;;2.80;;
4148;SDS011;2088;51.032;7.082;2023-06-01T04:42:18;5.60;;;3.10;;
4148;SDS011;2088;51.032;7.082;2023-06-01T04:44:46;4.47;;;3.40;;
4148;SDS011;2088;51.032;7.082;2023-06-01T04:47:14;5.17;;;3.37;;
4148;SDS011;2088;51.032;7.082;2023-06-01T04:49:42;9.53;;;3.43;;
4148;SDS011;2088;51.032;7.082;2023-06-01T04:52:09;11.80;;;4.13;;
4148;SDS011;2088;51.032;7.082;2023-06-01T04:54:38;9.37;;;3.70;;
4148;SDS011;2088;51.032;7.082;2023-06-01T04:57:05;7.67;;;4.63;;
4148;SDS011;2088;51.032;7.082;2023-06-01T04:59:32;6.83;;;4.63;;
4148;SDS011;2088;51.032;7.082;2023-06-01T05:02:00;9.80;;;4.50;;
4148;SDS011;2088;51.032;7.082;2023-06-01T05:04:27;6.97;;;5.13;;
4148;SDS011;2088;51.032;7.082;2023-06-01T05:06:54;6.20;;;3.50;;
4148;SDS011;2088;51.032;7.082;2023-06-01T05:09:21;18.90;;;5.83;;
4148;SDS011;2088;51.032;7.082;2023-06-01T05:11:49;13.43;;;5.20;;
4148;SDS011;2088;51.032;7.082;2023-06-01T05:14:16;8.67;;;5.50;;
4148;SDS011;2088;51.032;7.082;2023-06-01T05:16:43;12.13;;;5.47;;
4148;SDS011;2088;51.032;7.082;2023-06-01T05:19:11;10.47;;;5.40;;
4148;SDS011;2088;51.032;7.082;2023-06-01T05:21:38;11.23;;;6.30;;
4148;SDS011;2088;51.032;7.082;2023-06-01T05:24:06;13.23;;;6.00;;
4148;SDS011;2088;51.032;7.082;2023-06-01T05:26:33;14.33;;;7.47;;
4148;SDS011;2088;51.032;7.082;2023-06-01T05:29:02;13.07;;;7.00;;
4148;SDS011;2088;51.032;7.082;2023-06-01T05:31:29;11.90;;;7.37;;
4148;SDS011;2088;51.032;7.082;2023-06-01T05:33:56;19.40;;;8.80;;
4148;SDS011;2088;51.032;7.082;2023-06-01T05:36:23;17.20;;;9.10;;
4148;SDS011;2088;51.032;7.082;2023-06-01T05:38:50;18.53;;;9.53;;
4148;SDS011;2088;51.032;7.082;2023-06-01T05:41:17;17.00;;;8.40;;
4148;SDS011;2088;51.032;7.082;2023-06-01T05:43:45;14.90;;;8.60;;
4148;SDS011;2088;51.032;7.082;2023-06-01T05:46:13;13.03;;;7.90;;
4148;SDS011;2088;51.032;7.082;2023-06-01T05:48:40;14.03;;;7.67;;
4148;SDS011;2088;51.032;7.082;2023-06-01T05:51:07;17.63;;;8.47;;
4148;SDS011;2088;51.032;7.082;2023-06-01T05:53:34;22.13;;;8.43;;
4148;SDS011;2088;51.032;7.082;2023-06-01T05:56:01;20.20;;;8.97;;
4148;SDS011;2088;51.032;7.082;2023-06-01T05:58:28;12.37;;;7.57;;
4148;SDS011;2088;51.032;7.082;2023-06-01T06:00:55;14.23;;;8.27;;
4148;SDS011;2088;51.032;7.082;2023-06-01T06:03:24;18.13;;;9.70;;
4148;SDS011;2088;51.032;7.082;2023-06-01T06:05:51;20.57;;;10.13;;
4148;SDS011;2088;51.032;7.082;2023-06-01T06:08:18;14.90;;;8.10;;
4148;SDS011;2088;51.032;7.082;2023-06-01T06:10:45;24.93;;;9.17;;
4148;SDS011;2088;51.032;7.082;2023-06-01T06:13:13;17.87;;;10.23;;
4148;SDS011;2088;51.032;7.082;2023-06-01T06:15:41;18.60;;;9.03;;
4148;SDS011;2088;51.032;7.082;2023-06-01T06:18:08;19.07;;;8.57;;
4148;SDS011;2088;51.032;7.082;2023-06-01T06:20:36;17.57;;;9.67;;
4148;SDS011;2088;51.032;7.082;2023-06-01T06:23:03;17.87;;;9.80;;
4148;SDS011;2088;51.032;7.082;2023-06-01T06:25:30;21.10;;;10.33;;
4148;SDS011;2088;51.032;7.082;2023-06-01T06:27:57;22.13;;;10.90;;
4148;SDS011;2088;51.032;7.082;2023-06-01T06:30:24;20.90;;;10.50;;
4148;SDS011;2088;51.032;7.082;2023-06-01T06:32:51;20.13;;;9.97;;
4148;SDS011;2088;51.032;7.082;2023-06-01T06:35:18;26.57;;;10.10;;
4148;SDS011;2088;51.032;7.082;2023-06-01T06:37:47;17.63;;;9.80;;
4148;SDS011;2088;51.032;7.082;2023-06-01T06:40:14;18.50;;;10.77;;
4148;SDS011;2088;51.032;7.082;2023-06-01T06:42:43;28.47;;;11.57;;
4148;SDS011;2088;51.032;7.082;2023-06-01T06:45:10;22.17;;;11.40;;
4148;SDS011;2088;51.032;7.082;2023-06-01T06:47:37;24.40;;;11.80;;
4148;SDS011;2088;51.032;7.082;2023-06-01T06:50:05;20.10;;;12.10;;
4148;SDS011;2088;51.032;7.082;2023-06-01T06:52:32;21.33;;;11.43;;
4148;SDS011;2088;51.032;7.082;2023-06-01T06:55:00;24.17;;;12.10;;
4148;SDS011;2088;51.032;7.082;2023-06-01T06:57:28;25.57;;;12.53;;
4148;SDS011;2088;51.032;7.082;2023-06-01T06:59:55;20.13;;;12.10;;
4148;SDS011;2088;51.032;7.082;2023-06-01T07:02:22;27.43;;;11.43;;
4148;SDS011;2088;51.032;7.082;2023-06-01T07:04:50;24.70;;;11.93;;
4148;SDS011;2088;51.032;7.082;2023-06-01T07:07:17;26.40;;;15.13;;
4148;SDS011;2088;51.032;7.082;2023-06-01T07:09:44;23.17;;;12.30;;
4148;SDS011;2088;51.032;7.082;2023-06-01T07:12:13;27.30;;;11.43;;
4148;SDS011;2088;51.032;7.082;2023-06-01T07:14:40;21.50;;;11.73;;
4148;SDS011;2088;51.032;7.082;2023-06-01T07:17:07;18.73;;;11.90;;
4148;SDS011;2088;51.032;7.082;2023-06-01T07:19:34;18.90;;;10.97;;
4148;SDS011;2088;51.032;7.082;2023-06-01T07:22:01;23.40;;;12.73;;
4148;SDS011;2088;51.032;7.082;2023-06-01T07:24:28;17.87;;;12.37;;
4148;SDS011;2088;51.032;7.082;2023-06-01T07:26:56;24.67;;;14.07;;
4148;SDS011;2088;51.032;7.082;2023-06-01T07:29:24;19.93;;;11.60;;
4148;SDS011;2088;51.032;7.082;2023-06-01T07:31:52;20.60;;;11.53;;
4148;SDS011;2088;51.032;7.082;2023-06-01T07:34:19;24.57;;;12.97;;
4148;SDS011;2088;51.032;7.082;2023-06-01T07:36:47;23.30;;;11.67;;
4148;SDS011;2088;51.032;7.082;2023-06-01T07:39:15;32.03;;;12.90;;
4148;SDS011;2088;51.032;7.082;2023-06-01T07:41:44;27.03;;;11.93;;
4148;SDS011;2088;51.032;7.082;2023-06-01T07:44:11;22.80;;;11.70;;
4148;SDS011;2088;51.032;7.082;2023-06-01T07:46:44;24.87;;;12.17;;
4148;SDS011;2088;51.032;7.082;2023-06-01T07:49:12;33.27;;;13.33;;
4148;SDS011;2088;51.032;7.082;2023-06-01T07:51:39;25.30;;;11.80;;
4148;SDS011;2088;51.032;7.082;2023-06-01T07:54:07;20.77;;;11.63;;
4148;SDS011;2088;51.032;7.082;2023-06-01T07:56:34;17.77;;;11.50;;
4148;SDS011;2088;51.032;7.082;2023-06-01T07:59:01;18.13;;;10.90;;
4148;SDS011;2088;51.032;7.082;2023-06-01T08:01:28;22.40;;;13.20;;
4148;SDS011;2088;51.032;7.082;2023-06-01T08:03:57;21.73;;;12.23;;
4148;SDS011;2088;51.032;7.082;2023-06-01T08:06:24;22.30;;;12.30;;
4148;SDS011;2088;51.032;7.082;2023-06-01T08:08:51;20.40;;;12.13;;
4148;SDS011;2088;51.032;7.082;2023-06-01T08:11:19;21.90;;;13.03;;
4148;SDS011;2088;51.032;7.082;2023-06-01T08:13:46;20.83;;;12.07;;
4148;SDS011;2088;51.032;7.082;2023-06-01T08:16:14;17.53;;;10.50;;
4148;SDS011;2088;51.032;7.082;2023-06-01T08:18:41;18.77;;;11.80;;
4148;SDS011;2088;51.032;7.082;2023-06-01T08:21:10;22.47;;;11.57;;
4148;SDS011;2088;51.032;7.082;2023-06-01T08:23:37;19.80;;;10.37;;
4148;SDS011;2088;51.032;7.082;2023-06-01T08:26:05;25.53;;;12.30;;
4148;SDS011;2088;51.032;7.082;2023-06-01T08:28:32;22.70;;;10.70;;
4148;SDS011;2088;51.032;7.082;2023-06-01T08:30:59;20.37;;;11.77;;
4148;SDS011;2088;51.032;7.082;2023-06-01T08:33:27;23.40;;;12.07;;
4148;SDS011;2088;51.032;7.082;2023-06-01T08:35:54;21.00;;;13.03;;
4148;SDS011;2088;51.032;7.082;2023-06-01T08:38:22;21.93;;;13.00;;
4148;SDS011;2088;51.032;7.082;2023-06-01T08:40:53;17.60;;;10.10;;
4148;SDS011;2088;51.032;7.082;2023-06-01T08:43:20;21.37;;;11.47;;
4148;SDS011;2088;51.032;7.082;2023-06-01T08:45:49;18.87;;;10.30;;
4148;SDS011;2088;51.032;7.082;2023-06-01T08:48:17;18.50;;;11.30;;
4148;SDS011;2088;51.032;7.082;2023-06-01T08:50:45;20.00;;;11.23;;
4148;SDS011;2088;51.032;7.082;2023-06-01T08:53:14;17.87;;;11.43;;
4148;SDS011;2088;51.032;7.082;2023-06-01T08:55:44;26.03;;;11.03;;
4148;SDS011;2088;51.032;7.082;2023-06-01T08:58:12;18.03;;;10.80;;
4148;SDS011;2088;51.032;7.082;2023-06-01T09:00:40;16.10;;;10.27;;
4148;SDS011;2088;51.032;7.082;2023-06-01T09:03:07;16.03;;;10.27;;
4148;SDS011;2088;51.032;7.082;2023-06-01T09:05:35;18.80;;;11.87;;
4148;SDS011;2088;51.032;7.082;2023-06-01T09:08:02;18.87;;;10.77;;
4148;SDS011;2088;51.032;7.082;2023-06-01T09:10:29;17.60;;;9.77;;
4148;SDS011;2088;51.032;7.082;2023-06-01T09:12:57;20.10;;;10.73;;
4148;SDS011;2088;51.032;7.082;2023-06-01T09:15:26;22.03;;;12.03;;
4148;SDS011;2088;51.032;7.082;2023-06-01T09:18:04;25.10;;;12.00;;
4148;SDS011;2088;51.032;7.082;2023-06-01T09:20:32;17.50;;;11.17;;
4148;SDS011;2088;51.032;7.082;2023-06-01T09:22:59;17.23;;;9.03;;
4148;SDS011;2088;51.032;7.082;2023-06-01T09:25:27;18.43;;;10.57;;
4148;SDS011;2088;51.032;7.082;2023-06-01T09:27:54;19.47;;;10.43;;
4148;SDS011;2088;51.032;7.082;2023-06-01T09:30:24;21.47;;;10.70;;
4148;SDS011;2088;51.032;7.082;2023-06-01T09:32:54;24.33;;;10.80;;
4148;SDS011;2088;51.032;7.082;2023-06-01T09:35:39;23.67;;;11.40;;
4148;SDS011;2088;51.032;7.082;2023-06-01T09:38:07;22.53;;;10.10;;
4148;SDS011;2088;51.032;7.082;2023-06-01T09:40:34;19.23;;;10.37;;
4148;SDS011;2088;51.032;7.082;2023-06-01T09:43:01;17.53;;;9.93;;
4148;SDS011;2088;51.032;7.082;2023-06-01T09:45:30;15.13;;;9.60;;
4148;SDS011;2088;51.032;7.082;2023-06-01T09:48:15;16.70;;;9.60;;
4148;SDS011;2088;51.032;7.082;2023-06-01T09:50:42;19.47;;;9.93;;
4148;SDS011;2088;51.032;7.082;2023-06-01T09:53:10;17.43;;;9.23;;
4148;SDS011;2088;51.032;7.082;2023-06-01T09:55:40;17.93;;;9.80;;
4148;SDS011;2088;51.032;7.082;2023-06-01T09:58:22;19.77;;;10.10;;
4148;SDS011;2088;51.032;7.082;2023-06-01T10:00:51;15.50;;;9.87;;
4148;SDS011;2088;51.032;7.082;2023-06-01T10:03:19;22.23;;;11.00;;
4148;SDS011;2088;51.032;7.082;2023-06-01T10:05:46;29.90;;;12.93;;
4148;SDS011;2088;51.032;7.082;2023-06-01T10:08:14;21.33;;;11.57;;
4148;SDS011;2088;51.032;7.082;2023-06-01T10:10:42;23.70;;;11.53;;
4148;SDS011;2088;51.032;7.082;2023-06-01T10:13:10;22.30;;;11.87;;
4148;SDS011;2088;51.032;7.082;2023-06-01T10:15:37;28.93;;;11.90;;
4148;SDS011;2088;51.032;7.082;2023-06-01T10:18:06;26.20;;;14.20;;
4148;SDS011;2088;51.032;7.082;2023-06-01T10:20:33;23.43;;;12.30;;
4148;SDS011;2088;51.032;7.082;2023-06-01T10:23:01;25.23;;;15.03;;
4148;SDS011;2088;51.032;7.082;2023-06-01T10:25:28;30.10;;;14.87;;
4148;SDS011;2088;51.032;7.082;2023-06-01T10:27:57;32.40;;;15.93;;
4148;SDS011;2088;51.032;7.082;2023-06-01T10:30:25;31.10;;;16.67;;
4148;SDS011;2088;51.032;7.082;2023-06-01T10:32:52;27.77;;;16.30;;
4148;SDS011;2088;51.032;7.082;2023-06-01T10:38:24;25.13;;;14.63;;
4148;SDS011;2088;51.032;7.082;2023-06-01T10:40:52;22.00;;;12.90;;
4148;SDS011;2088;51.032;7.082;2023-06-01T10:43:39;21.57;;;13.67;;
4148;SDS011;2088;51.032;7.082;2023-06-01T10:48:51;25.40;;;12.03;;
4148;SDS011;2088;51.032;7.082;2023-06-01T10:51:18;22.30;;;11.07;;
4148;SDS011;2088;51.032;7.082;2023-06-01T10:53:47;19.67;;;10.03;;
4148;SDS011;2088;51.032;7.082;2023-06-01T10:56:18;21.37;;;10.80;;
4148;SDS011;2088;51.032;7.082;2023-06-01T10:58:47;16.70;;;9.80;;
4148;SDS011;2088;51.032;7.082;2023-06-01T11:01:18;23.13;;;10.70;;
4148;SDS011;2088;51.032;7.082;2023-06-01T11:03:47;16.50;;;8.13;;
4148;SDS011;2088;51.032;7.082;2023-06-01T11:06:25;19.33;;;8.90;;
4148;SDS011;2088;51.032;7.082;2023-06-01T11:08:55;30.87;;;9.30;;
4148;SDS011;2088;51.032;7.082;2023-06-01T11:11:22;16.40;;;9.37;;
4148;SDS011;2088;51.032;7.082;2023-06-01T11:14:06;15.43;;;7.93;;
4148;SDS011;2088;51.032;7.082;2023-06-01T11:16:33;12.03;;;6.73;;
4148;SDS011;2088;51.032;7.082;2023-06-01T11:19:01;13.83;;;7.40;;
4148;SDS011;2088;51.032;7.082;2023-06-01T11:21:29;12.20;;;8.03;;
4148;SDS011;2088;51.032;7.082;2023-06-01T11:23:58;16.53;;;7.93;;
4148;SDS011;2088;51.032;7.082;2023-06-01T11:26:29;17.53;;;8.00;;
4148;SDS011;2088;51.032;7.082;2023-06-01T11:31:39;13.70;;;9.20;;
4148;SDS011;2088;51.032;7.082;2023-06-01T11:34:08;11.10;;;6.97;;
4148;SDS011;2088;51.032;7.082;2023-06-01T11:36:36;14.40;;;7.83;;
4148;SDS011;2088;51.032;7.082;2023-06-01T11:39:04;17.23;;;8.63;;
4148;SDS011;2088;51.032;7.082;2023-06-01T11:41:36;18.07;;;7.90;;
4148;SDS011;2088;51.032;7.082;2023-06-01T11:44:03;12.93;;;7.70;;
4148;SDS011;2088;51.032;7.082;2023-06-01T11:46:30;14.90;;;7.63;;
4148;SDS011;2088;51.032;7.082;2023-06-01T11:49:01;13.00;;;7.03;;
4148;SDS011;2088;51.032;7.082;2023-06-01T11:51:29;15.63;;;7.57;;
4148;SDS011;2088;51.032;7.082;2023-06-01T11:53:57;15.73;;;7.30;;
4148;SDS011;2088;51.032;7.082;2023-06-01T11:56:29;11.07;;;7.00;;
4148;SDS011;2088;51.032;7.082;2023-06-01T11:58:57;11.60;;;6.50;;
4148;SDS011;2088;51.032;7.082;2023-06-01T12:01:24;16.83;;;7.03;;
4148;SDS011;2088;51.032;7.082;2023-06-01T12:03:52;10.63;;;6.47;;
4148;SDS011;2088;51.032;7.082;2023-06-01T12:06:20;11.87;;;6.73;;
4148;SDS011;2088;51.032;7.082;2023-06-01T12:08:47;15.47;;;6.70;;
4148;SDS011;2088;51.032;7.082;2023-06-01T12:11:16;15.40;;;7.23;;
4148;SDS011;2088;51.032;7.082;2023-06-01T12:13:46;13.97;;;7.30;;
4148;SDS011;2088;51.032;7.082;2023-06-01T12:16:13;15.23;;;6.83;;
4148;SDS011;2088;51.032;7.082;2023-06-01T12:18:42;14.70;;;7.50;;
4148;SDS011;2088;51.032;7.082;2023-06-01T12:21:10;18.13;;;7.20;;
4148;SDS011;2088;51.032;7.082;2023-06-01T12:23:37;7.67;;;6.30;;
4148;SDS011;2088;51.032;7.082;2023-06-01T12:26:04;10.13;;;6.43;;
4148;SDS011;2088;51.032;7.082;2023-06-01T12:28:50;13.73;;;6.57;;
4148;SDS011;2088;51.032;7.082;2023-06-01T12:31:20;9.93;;;6.40;;
4148;SDS011;2088;51.032;7.082;2023-06-01T12:33:47;13.27;;;6.97;;
4148;SDS011;2088;51.032;7.082;2023-06-01T12:36:27;13.37;;;6.77;;
4148;SDS011;2088;51.032;7.082;2023-06-01T12:38:56;11.80;;;7.10;;
4148;SDS011;2088;51.032;7.082;2023-06-01T12:41:24;9.87;;;6.50;;
4148;SDS011;2088;51.032;7.082;2023-06-01T12:43:52;21.23;;;8.10;;
4148;SDS011;2088;51.032;7.082;2023-06-01T12:46:20;12.57;;;8.80;;
4148;SDS011;2088;51.032;7.082;2023-06-01T12:48:47;12.57;;;7.60;;
4148;SDS011;2088;51.032;7.082;2023-06-01T12:51:15;17.73;;;9.07;;
4148;SDS011;2088;51.032;7.082;2023-06-01T12:53:42;18.23;;;9.23;;
4148;SDS011;2088;51.032;7.082;2023-06-01T12:56:10;20.30;;;7.10;;
4148;SDS011;2088;51.032;7.082;2023-06-01T12:58:37;11.17;;;7.00;;
4148;SDS011;2088;51.032;7.082;2023-06-01T13:01:06;13.70;;;8.03;;
4148;SDS011;2088;51.032;7.082;2023-06-01T13:03:33;13.13;;;7.50;;
4148;SDS011;2088;51.032;7.082;2023-06-01T13:06:00;11.60;;;7.93;;
4148;SDS011;2088;51.032;7.082;2023-06-01T13:08:27;13.20;;;8.20;;
4148;SDS011;2088;51.032;7.082;2023-06-01T13:10:54;13.53;;;9.50;;
4148;SDS011;2088;51.032;7.082;2023-06-01T13:13:22;14.07;;;8.83;;
4148;SDS011;2088;51.032;7.082;2023-06-01T13:15:49;12.10;;;9.73;;
4148;SDS011;2088;51.032;7.082;2023-06-01T13:18:17;24.77;;;10.53;;
4148;SDS011;2088;51.032;7.082;2023-06-01T13:20:44;13.67;;;8.97;;
4148;SDS011;2088;51.032;7.082;2023-06-01T13:23:11;14.70;;;9.93;;
4148;SDS011;2088;51.032;7.082;2023-06-01T13:25:39;26.13;;;11.23;;
4148;SDS011;2088;51.032;7.082;2023-06-01T13:28:06;21.37;;;10.10;;
4148;SDS011;2088;51.032;7.082;2023-06-01T13:30:34;15.83;;;9.20;;
4148;SDS011;2088;51.032;7.082;2023-06-01T13:33:01;13.73;;;9.07;;
4148;SDS011;2088;51.032;7.082;2023-06-01T13:35:29;14.93;;;7.73;;
4148;SDS011;2088;51.032;7.082;2023-06-01T13:37:57;17.00;;;8.43;;
4148;SDS011;2088;51.032;7.082;2023-06-01T13:40:24;10.40;;;7.10;;
4148;SDS011;2088;51.032;7.082;2023-06-01T13:42:52;12.43;;;7.50;;
4148;SDS011;2088;51.032;7.082;2023-06-01T13:45:19;12.67;;;7.77;;
4148;SDS011;2088;51.032;7.082;2023-06-01T13:47:46;16.93;;;7.40;;
4148;SDS011;2088;51.032;7.082;2023-06-01T13:50:14;13.97;;;6.53;;
4148;SDS011;2088;51.032;7.082;2023-06-01T13:52:43;11.53;;;6.93;;
4148;SDS011;2088;51.032;7.082;2023-06-01T13:55:11;17.77;;;8.40;;
4148;SDS011;2088;51.032;7.082;2023-06-01T13:57:39;13.80;;;8.33;;
4148;SDS011;2088;51.032;7.082;2023-06-01T14:00:07;14.43;;;7.43;;
4148;SDS011;2088;51.032;7.082;2023-06-01T14:02:35;11.10;;;7.80;;
4148;SDS011;2088;51.032;7.082;2023-06-01T14:05:02;14.03;;;8.47;;
4148;SDS011;2088;51.032;7.082;2023-06-01T14:07:30;14.23;;;7.93;;
4148;SDS011;2088;51.032;7.082;2023-06-01T14:09:58;16.13;;;8.73;;
4148;SDS011;2088;51.032;7.082;2023-06-01T14:12:25;11.10;;;7.77;;
4148;SDS011;2088;51.032;7.082;2023-06-01T14:14:52;20.90;;;9.20;;
4148;SDS011;2088;51.032;7.082;2023-06-01T14:17:19;12.70;;;6.83;;
4148;SDS011;2088;51.032;7.082;2023-06-01T14:19:46;15.50;;;8.30;;
4148;SDS011;2088;51.032;7.082;2023-06-01T14:22:13;15.33;;;7.63;;
4148;SDS011;2088;51.032;7.082;2023-06-01T14:24:41;11.40;;;6.80;;
4148;SDS011;2088;51.032;7.082;2023-06-01T14:27:09;16.30;;;7.70;;
4148;SDS011;2088;51.032;7.082;2023-06-01T14:29:36;11.07;;;6.67;;
4148;SDS011;2088;51.032;7.082;2023-06-01T14:32:03;10.30;;;6.20;;
4148;SDS011;2088;51.032;7.082;2023-06-01T14:34:31;11.10;;;6.60;;
4148;SDS011;2088;51.032;7.082;2023-06-01T14:36:58;15.03;;;6.97;;
4148;SDS011;2088;51.032;7.082;2023-06-01T14:39:25;11.60;;;5.77;;
4148;SDS011;2088;51.032;7.082;2023-06-01T14:41:53;11.50;;;5.97;;
4148;SDS011;2088;51.032;7.082;2023-06-01T14:44:21;7.90;;;5.20;;
4148;SDS011;2088;51.032;7.082;2023-06-01T14:46:48;14.07;;;5.90;;
4148;SDS011;2088;51.032;7.082;2023-06-01T14:49:15;9.77;;;5.90;;
4148;SDS011;2088;51.032;7.082;2023-06-01T14:51:42;8.40;;;5.77;;
4148;SDS011;2088;51.032;7.082;2023-06-01T14:54:10;6.70;;;5.20;;
4148;SDS011;2088;51.032;7.082;2023-06-01T14:56:37;13.53;;;5.17;;
4148;SDS011;2088;51.032;7.082;2023-06-01T14:59:04;8.90;;;4.80;;
4148;SDS011;2088;51.032;7.082;2023-06-01T15:01:32;13.70;;;5.20;;
4148;SDS011;2088;51.032;7.082;2023-06-01T15:03:59;8.03;;;5.33;;
4148;SDS011;2088;51.032;7.082;2023-06-01T15:06:26;8.03;;;5.10;;
4148;SDS011;2088;51.032;7.082;2023-06-01T15:08:54;12.53;;;6.47;;
4148;SDS011;2088;51.032;7.082;2023-06-01T15:11:21;14.90;;;5.10;;
4148;SDS011;2088;51.032;7.082;2023-06-01T15:13:48;15.40;;;5.80;;
4148;SDS011;2088;51.032;7.082;2023-06-01T15:16:15;9.10;;;5.23;;